sensor_id;sensor_type;location;lat;lon;timestamp;pressure;altitude;pressure_sealevel;temperature;humidity
45129;BME280;35512;56.312;101.728;2022-09-03T00:00:08;96017.41;;;5.69;93.54
45129;BME280;35512;56.312;101.728;2022-09-03T00:02:44;96020.72;;;5.66;93.80
45129;BME280;35512;56.312;101.728;2022-09-03T00:05:34;96024.41;;;5.73;93.60
45129;BME280;35512;56.312;101.728;2022-09-03T00:11:32;96032.75;;;5.84;94.02
45129;BME280;35512;56.312;101.728;2022-09-03T00:13:38;96035.53;;;5.88;93.82
45129;BME280;35512;56.312;101.728;2022-09-03T00:16:14;96042.88;;;5.91;94.19
45129;BME280;35512;56.312;101.728;2022-09-03T00:18:58;96049.00;;;5.91;93.65
45129;BME280;35512;56.312;101.728;2022-09-03T00:21:40;96049.81;;;5.92;93.57
45129;BME280;35512;56.312;101.728;2022-09-03T00:24:14;96048.66;;;5.93;93.77
45129;BME280;35512;56.312;101.728;2022-09-03T00:26:49;96053.72;;;5.95;93.47
45129;BME280;35512;56.312;101.728;2022-09-03T00:29:36;96052.56;;;5.96;93.93
45129;BME280;35512;56.312;101.728;2022-09-03T00:32:13;96058.53;;;6.01;93.46
45129;BME280;35512;56.312;101.728;2022-09-03T00:34:53;96060.50;;;6.04;94.11
45129;BME280;35512;56.312;101.728;2022-09-03T00:37:30;96061.81;;;6.11;93.78
45129;BME280;35512;56.312;101.728;2022-09-03T00:40:10;96063.91;;;6.17;93.99
45129;BME280;35512;56.312;101.728;2022-09-03T00:42:53;96073.63;;;6.22;94.00
45129;BME280;35512;56.312;101.728;2022-09-03T00:46:09;96069.31;;;6.33;94.25
45129;BME280;35512;56.312;101.728;2022-09-03T01:00:27;96090.88;;;6.53;93.68
45129;BME280;35512;56.312;101.728;2022-09-03T01:11:16;96093.38;;;6.46;93.25
45129;BME280;35512;56.312;101.728;2022-09-03T01:28:41;96101.63;;;6.53;93.83
45129;BME280;35512;56.312;101.728;2022-09-03T01:31:49;96103.28;;;6.57;93.62
45129;BME280;35512;56.312;101.728;2022-09-03T01:40:42;96108.72;;;6.61;93.39
45129;BME280;35512;56.312;101.728;2022-09-03T01:46:26;96109.66;;;6.53;93.42
45129;BME280;35512;56.312;101.728;2022-09-03T01:49:14;96123.94;;;6.57;93.58
45129;BME280;35512;56.312;101.728;2022-09-03T01:51:44;96122.06;;;6.57;93.38
45129;BME280;35512;56.312;101.728;2022-09-03T01:57:18;96126.56;;;6.69;93.51
45129;BME280;35512;56.312;101.728;2022-09-03T02:02:46;96140.41;;;6.55;93.08
45129;BME280;35512;56.312;101.728;2022-09-03T02:05:21;96148.97;;;6.61;93.02
45129;BME280;35512;56.312;101.728;2022-09-03T02:08:07;96145.28;;;6.66;93.02
45129;BME280;35512;56.312;101.728;2022-09-03T02:10:50;96145.06;;;6.58;93.32
45129;BME280;35512;56.312;101.728;2022-09-03T02:13:29;96158.28;;;6.51;92.85
45129;BME280;35512;56.312;101.728;2022-09-03T02:16:04;96148.25;;;6.48;92.84
45129;BME280;35512;56.312;101.728;2022-09-03T02:18:43;96156.31;;;6.48;93.10
45129;BME280;35512;56.312;101.728;2022-09-03T02:21:19;96157.06;;;6.49;92.94
45129;BME280;35512;56.312;101.728;2022-09-03T02:23:50;96168.59;;;6.49;92.65
45129;BME280;35512;56.312;101.728;2022-09-03T02:26:22;96166.63;;;6.34;92.37
45129;BME280;35512;56.312;101.728;2022-09-03T02:28:52;96182.38;;;6.35;92.97
45129;BME280;35512;56.312;101.728;2022-09-03T02:31:22;96190.53;;;6.39;92.75
45129;BME280;35512;56.312;101.728;2022-09-03T02:33:51;96183.94;;;6.36;93.01
45129;BME280;35512;56.312;101.728;2022-09-03T02:36:46;96196.41;;;6.29;92.51
45129;BME280;35512;56.312;101.728;2022-09-03T02:39:15;96189.25;;;6.20;92.68
45129;BME280;35512;56.312;101.728;2022-09-03T02:41:49;96196.16;;;6.21;92.82
45129;BME280;35512;56.312;101.728;2022-09-03T02:44:30;96203.75;;;6.32;92.74
45129;BME280;35512;56.312;101.728;2022-09-03T02:47:04;96199.28;;;6.36;93.06
45129;BME280;35512;56.312;101.728;2022-09-03T02:49:34;96195.66;;;6.44;92.76
45129;BME280;35512;56.312;101.728;2022-09-03T02:52:09;96201.00;;;6.56;93.23
45129;BME280;35512;56.312;101.728;2022-09-03T02:54:40;96205.38;;;6.49;92.75
45129;BME280;35512;56.312;101.728;2022-09-03T02:57:14;96203.03;;;6.47;92.72
45129;BME280;35512;56.312;101.728;2022-09-03T02:59:50;96210.16;;;6.55;92.62
45129;BME280;35512;56.312;101.728;2022-09-03T03:02:20;96215.22;;;6.73;92.29
45129;BME280;35512;56.312;101.728;2022-09-03T03:04:49;96214.19;;;7.06;92.92
45129;BME280;35512;56.312;101.728;2022-09-03T03:07:21;96205.97;;;7.78;92.89
45129;BME280;35512;56.312;101.728;2022-09-03T03:09:50;96212.44;;;8.65;93.13
45129;BME280;35512;56.312;101.728;2022-09-03T03:12:19;96206.34;;;8.68;92.50
45129;BME280;35512;56.312;101.728;2022-09-03T03:14:48;96220.09;;;8.27;91.79
45129;BME280;35512;56.312;101.728;2022-09-03T03:17:17;96220.91;;;7.76;90.86
45129;BME280;35512;56.312;101.728;2022-09-03T03:19:46;96231.97;;;7.42;90.59
45129;BME280;35512;56.312;101.728;2022-09-03T03:22:15;96230.84;;;7.27;91.43
45129;BME280;35512;56.312;101.728;2022-09-03T03:24:44;96236.81;;;7.21;91.47
45129;BME280;35512;56.312;101.728;2022-09-03T03:27:13;96235.06;;;7.13;91.90
45129;BME280;35512;56.312;101.728;2022-09-03T03:29:42;96230.41;;;7.09;91.82
45129;BME280;35512;56.312;101.728;2022-09-03T03:32:11;96238.00;;;7.07;91.97
45129;BME280;35512;56.312;101.728;2022-09-03T03:34:40;96239.16;;;7.22;91.88
45129;BME280;35512;56.312;101.728;2022-09-03T03:37:09;96250.50;;;7.32;91.65
45129;BME280;35512;56.312;101.728;2022-09-03T03:39:38;96240.81;;;7.27;91.59
45129;BME280;35512;56.312;101.728;2022-09-03T03:42:07;96251.69;;;7.18;91.75
45129;BME280;35512;56.312;101.728;2022-09-03T03:44:36;96262.25;;;7.11;91.64
45129;BME280;35512;56.312;101.728;2022-09-03T03:47:05;96254.03;;;7.04;91.80
45129;BME280;35512;56.312;101.728;2022-09-03T03:49:34;96255.84;;;7.00;91.66
45129;BME280;35512;56.312;101.728;2022-09-03T03:52:03;96260.06;;;7.01;92.07
45129;BME280;35512;56.312;101.728;2022-09-03T03:54:32;96246.75;;;7.04;92.15
45129;BME280;35512;56.312;101.728;2022-09-03T03:57:01;96261.13;;;7.40;92.18
45129;BME280;35512;56.312;101.728;2022-09-03T03:59:30;96263.56;;;7.77;92.77
45129;BME280;35512;56.312;101.728;2022-09-03T04:01:59;96265.94;;;7.99;92.21
45129;BME280;35512;56.312;101.728;2022-09-03T04:04:29;96266.66;;;8.11;92.03
45129;BME280;35512;56.312;101.728;2022-09-03T04:06:58;96270.78;;;8.25;91.90
45129;BME280;35512;56.312;101.728;2022-09-03T04:09:27;96281.38;;;8.18;91.90
45129;BME280;35512;56.312;101.728;2022-09-03T04:11:56;96285.72;;;8.06;91.53
45129;BME280;35512;56.312;101.728;2022-09-03T04:14:26;96274.88;;;8.19;91.67
45129;BME280;35512;56.312;101.728;2022-09-03T04:16:55;96277.53;;;8.35;91.88
45129;BME280;35512;56.312;101.728;2022-09-03T04:19:24;96292.69;;;8.43;91.79
45129;BME280;35512;56.312;101.728;2022-09-03T04:21:56;96288.81;;;8.24;91.33
45129;BME280;35512;56.312;101.728;2022-09-03T04:24:25;96310.91;;;8.14;91.17
45129;BME280;35512;56.312;101.728;2022-09-03T04:26:54;96302.72;;;7.94;91.05
45129;BME280;35512;56.312;101.728;2022-09-03T04:29:24;96308.13;;;7.78;90.97
45129;BME280;35512;56.312;101.728;2022-09-03T04:31:52;96310.00;;;7.62;90.98
45129;BME280;35512;56.312;101.728;2022-09-03T04:34:40;96311.22;;;7.49;90.90
45129;BME280;35512;56.312;101.728;2022-09-03T04:37:09;96322.63;;;7.45;91.05
45129;BME280;35512;56.312;101.728;2022-09-03T04:39:38;96319.69;;;7.51;91.67
45129;BME280;35512;56.312;101.728;2022-09-03T04:42:07;96328.91;;;7.66;91.50
45129;BME280;35512;56.312;101.728;2022-09-03T04:44:36;96325.53;;;7.85;91.74
45129;BME280;35512;56.312;101.728;2022-09-03T04:47:06;96318.41;;;8.40;91.83
45129;BME280;35512;56.312;101.728;2022-09-03T04:49:35;96313.63;;;8.85;91.78
45129;BME280;35512;56.312;101.728;2022-09-03T04:52:04;96308.31;;;9.51;91.33
45129;BME280;35512;56.312;101.728;2022-09-03T04:54:33;96309.69;;;10.34;91.67
45129;BME280;35512;56.312;101.728;2022-09-03T04:57:02;96310.16;;;10.67;90.23
45129;BME280;35512;56.312;101.728;2022-09-03T04:59:31;96326.03;;;11.74;89.76
45129;BME280;35512;56.312;101.728;2022-09-03T05:02:00;96319.72;;;13.18;88.88
45129;BME280;35512;56.312;101.728;2022-09-03T05:04:29;96314.06;;;14.53;86.22
45129;BME280;35512;56.312;101.728;2022-09-03T05:06:58;96317.19;;;15.62;83.61
45129;BME280;35512;56.312;101.728;2022-09-03T05:09:27;96325.38;;;16.64;83.53
45129;BME280;35512;56.312;101.728;2022-09-03T05:11:56;96324.25;;;17.65;82.48
45129;BME280;35512;56.312;101.728;2022-09-03T05:14:25;96324.13;;;18.27;80.26
45129;BME280;35512;56.312;101.728;2022-09-03T05:16:53;96331.34;;;18.13;77.24
45129;BME280;35512;56.312;101.728;2022-09-03T05:19:22;96331.47;;;17.48;78.52
45129;BME280;35512;56.312;101.728;2022-09-03T05:21:51;96339.94;;;16.92;78.08
45129;BME280;35512;56.312;101.728;2022-09-03T05:24:20;96340.47;;;17.76;78.91
45129;BME280;35512;56.312;101.728;2022-09-03T05:26:49;96346.63;;;17.83;76.48
45129;BME280;35512;56.312;101.728;2022-09-03T05:29:18;96351.97;;;17.63;75.27
45129;BME280;35512;56.312;101.728;2022-09-03T05:31:49;96340.06;;;17.77;76.17
45129;BME280;35512;56.312;101.728;2022-09-03T05:34:18;96359.56;;;16.76;75.39
45129;BME280;35512;56.312;101.728;2022-09-03T05:36:47;96351.50;;;15.42;76.22
45129;BME280;35512;56.312;101.728;2022-09-03T05:39:17;96354.38;;;14.95;78.93
45129;BME280;35512;56.312;101.728;2022-09-03T05:41:46;96349.75;;;14.84;78.07
45129;BME280;35512;56.312;101.728;2022-09-03T05:44:18;96355.59;;;14.32;77.26
45129;BME280;35512;56.312;101.728;2022-09-03T05:46:50;96352.84;;;13.82;77.23
45129;BME280;35512;56.312;101.728;2022-09-03T05:49:19;96358.59;;;13.59;78.81
45129;BME280;35512;56.312;101.728;2022-09-03T05:51:48;96366.78;;;13.77;78.69
45129;BME280;35512;56.312;101.728;2022-09-03T05:54:17;96366.97;;;13.21;78.07
45129;BME280;35512;56.312;101.728;2022-09-03T05:56:46;96370.38;;;12.41;78.73
45129;BME280;35512;56.312;101.728;2022-09-03T05:59:14;96375.59;;;11.81;79.91
45129;BME280;35512;56.312;101.728;2022-09-03T06:01:44;96375.13;;;11.38;81.04
45129;BME280;35512;56.312;101.728;2022-09-03T06:04:19;96391.53;;;10.92;81.77
45129;BME280;35512;56.312;101.728;2022-09-03T06:06:48;96395.81;;;10.43;81.92
45129;BME280;35512;56.312;101.728;2022-09-03T06:09:20;96406.69;;;9.80;82.09
45129;BME280;35512;56.312;101.728;2022-09-03T06:11:50;96422.25;;;9.28;83.11
45129;BME280;35512;56.312;101.728;2022-09-03T06:14:24;96433.72;;;8.90;84.17
45129;BME280;35512;56.312;101.728;2022-09-03T06:16:53;96426.84;;;8.57;84.32
45129;BME280;35512;56.312;101.728;2022-09-03T06:19:23;96435.41;;;8.31;84.79
45129;BME280;35512;56.312;101.728;2022-09-03T06:21:52;96435.00;;;8.00;84.19
45129;BME280;35512;56.312;101.728;2022-09-03T06:24:21;96426.72;;;7.61;84.74
45129;BME280;35512;56.312;101.728;2022-09-03T06:26:55;96430.16;;;7.33;85.36
45129;BME280;35512;56.312;101.728;2022-09-03T06:29:24;96424.97;;;7.12;85.64
45129;BME280;35512;56.312;101.728;2022-09-03T06:31:54;96426.09;;;6.99;85.96
45129;BME280;35512;56.312;101.728;2022-09-03T06:34:23;96432.59;;;6.85;86.05
45129;BME280;35512;56.312;101.728;2022-09-03T06:36:54;96437.53;;;6.71;86.48
45129;BME280;35512;56.312;101.728;2022-09-03T06:39:23;96422.44;;;6.66;86.71
45129;BME280;35512;56.312;101.728;2022-09-03T06:41:53;96433.38;;;6.73;86.60
45129;BME280;35512;56.312;101.728;2022-09-03T06:44:33;96435.38;;;7.01;87.41
45129;BME280;35512;56.312;101.728;2022-09-03T06:47:02;96441.34;;;7.35;87.16
45129;BME280;35512;56.312;101.728;2022-09-03T06:49:31;96440.97;;;7.49;86.78
45129;BME280;35512;56.312;101.728;2022-09-03T06:51:59;96444.44;;;7.78;87.13
45129;BME280;35512;56.312;101.728;2022-09-03T06:54:28;96444.81;;;8.08;87.02
45129;BME280;35512;56.312;101.728;2022-09-03T06:56:57;96448.25;;;8.37;86.96
45129;BME280;35512;56.312;101.728;2022-09-03T06:59:26;96448.53;;;8.80;87.02
45129;BME280;35512;56.312;101.728;2022-09-03T07:01:55;96442.34;;;9.51;87.02
45129;BME280;35512;56.312;101.728;2022-09-03T07:04:28;96437.06;;;10.90;86.41
45129;BME280;35512;56.312;101.728;2022-09-03T07:06:57;96446.81;;;11.89;85.08
45129;BME280;35512;56.312;101.728;2022-09-03T07:09:26;96448.00;;;12.26;82.35
45129;BME280;35512;56.312;101.728;2022-09-03T07:11:55;96450.34;;;11.93;79.99
45129;BME280;35512;56.312;101.728;2022-09-03T07:14:23;96446.00;;;11.55;80.18
45129;BME280;35512;56.312;101.728;2022-09-03T07:16:53;96453.31;;;11.50;81.35
45129;BME280;35512;56.312;101.728;2022-09-03T07:19:22;96458.94;;;12.40;81.67
45129;BME280;35512;56.312;101.728;2022-09-03T07:21:51;96453.00;;;14.45;81.82
45129;BME280;35512;56.312;101.728;2022-09-03T07:24:20;96460.16;;;15.96;79.03
45129;BME280;35512;56.312;101.728;2022-09-03T07:26:49;96454.94;;;15.24;75.05
45129;BME280;35512;56.312;101.728;2022-09-03T07:29:18;96467.31;;;14.13;75.11
45129;BME280;35512;56.312;101.728;2022-09-03T07:31:49;96482.81;;;13.24;76.47
45129;BME280;35512;56.312;101.728;2022-09-03T07:34:20;96476.13;;;12.59;77.15
45129;BME280;35512;56.312;101.728;2022-09-03T07:36:53;96474.53;;;12.54;79.52
45129;BME280;35512;56.312;101.728;2022-09-03T07:39:22;96478.44;;;12.57;78.14
45129;BME280;35512;56.312;101.728;2022-09-03T07:41:51;96472.97;;;13.01;79.05
45129;BME280;35512;56.312;101.728;2022-09-03T07:44:21;96465.66;;;13.76;76.60
45129;BME280;35512;56.312;101.728;2022-09-03T07:46:52;96478.16;;;13.25;74.67
45129;BME280;35512;56.312;101.728;2022-09-03T07:49:21;96475.69;;;12.53;75.28
45129;BME280;35512;56.312;101.728;2022-09-03T07:51:50;96477.72;;;11.88;76.59
45129;BME280;35512;56.312;101.728;2022-09-03T07:54:21;96500.97;;;11.32;77.44
45129;BME280;35512;56.312;101.728;2022-09-03T07:56:53;96486.06;;;10.88;78.67
45129;BME280;35512;56.312;101.728;2022-09-03T07:59:24;96496.97;;;10.49;79.03
45129;BME280;35512;56.312;101.728;2022-09-03T08:01:53;96497.75;;;10.07;79.94
45129;BME280;35512;56.312;101.728;2022-09-03T08:04:23;96497.69;;;9.64;79.83
45129;BME280;35512;56.312;101.728;2022-09-03T08:06:52;96501.94;;;9.29;80.97
45129;BME280;35512;56.312;101.728;2022-09-03T08:09:23;96510.09;;;9.13;81.18
45129;BME280;35512;56.312;101.728;2022-09-03T08:11:52;96512.28;;;8.92;81.43
45129;BME280;35512;56.312;101.728;2022-09-03T08:14:21;96520.88;;;8.66;81.32
45129;BME280;35512;56.312;101.728;2022-09-03T08:16:50;96512.63;;;8.30;81.87
45129;BME280;35512;56.312;101.728;2022-09-03T08:19:18;96530.53;;;8.22;82.68
45129;BME280;35512;56.312;101.728;2022-09-03T08:21:48;96515.75;;;8.16;83.25
45129;BME280;35512;56.312;101.728;2022-09-03T08:24:17;96528.59;;;8.23;83.58
45129;BME280;35512;56.312;101.728;2022-09-03T08:26:49;96533.75;;;8.28;83.43
45129;BME280;35512;56.312;101.728;2022-09-03T08:29:20;96533.88;;;8.19;83.04
45129;BME280;35512;56.312;101.728;2022-09-03T08:31:49;96540.53;;;8.09;83.36
45129;BME280;35512;56.312;101.728;2022-09-03T08:34:19;96537.91;;;7.97;83.66
45129;BME280;35512;56.312;101.728;2022-09-03T08:36:48;96536.59;;;7.91;84.03
45129;BME280;35512;56.312;101.728;2022-09-03T08:39:17;96553.81;;;8.02;84.58
45129;BME280;35512;56.312;101.728;2022-09-03T08:44:44;96554.28;;;8.49;84.73
45129;BME280;35512;56.312;101.728;2022-09-03T08:50:12;96558.25;;;8.39;84.52
45129;BME280;35512;56.312;101.728;2022-09-03T08:52:46;96566.56;;;8.34;84.49
45129;BME280;35512;56.312;101.728;2022-09-03T08:55:30;96565.84;;;8.21;84.57
45129;BME280;35512;56.312;101.728;2022-09-03T08:58:22;96571.25;;;8.08;85.15
45129;BME280;35512;56.312;101.728;2022-09-03T09:06:35;96570.94;;;8.10;85.24
45129;BME280;35512;56.312;101.728;2022-09-03T09:12:32;96576.84;;;8.16;84.45
45129;BME280;35512;56.312;101.728;2022-09-03T09:21:25;96588.13;;;8.21;84.84
45129;BME280;35512;56.312;101.728;2022-09-03T09:24:00;96589.25;;;8.20;84.62
45129;BME280;35512;56.312;101.728;2022-09-03T09:26:32;96584.56;;;8.17;84.92
45129;BME280;35512;56.312;101.728;2022-09-03T09:29:06;96593.50;;;8.21;84.99
45129;BME280;35512;56.312;101.728;2022-09-03T09:31:39;96593.63;;;8.25;85.30
45129;BME280;35512;56.312;101.728;2022-09-03T09:34:12;96599.44;;;8.27;84.60
45129;BME280;35512;56.312;101.728;2022-09-03T09:36:52;96599.94;;;8.04;84.29
45129;BME280;35512;56.312;101.728;2022-09-03T09:39:22;96599.91;;;7.88;84.29
45129;BME280;35512;56.312;101.728;2022-09-03T09:42:05;96604.28;;;7.81;84.69
45129;BME280;35512;56.312;101.728;2022-09-03T09:44:41;96610.13;;;7.70;84.77
45129;BME280;35512;56.312;101.728;2022-09-03T09:47:29;96617.97;;;7.63;84.67
45129;BME280;35512;56.312;101.728;2022-09-03T09:50:02;96616.97;;;7.55;84.70
45129;BME280;35512;56.312;101.728;2022-09-03T09:52:31;96610.59;;;7.48;85.31
45129;BME280;35512;56.312;101.728;2022-09-03T09:55:15;96633.75;;;7.40;85.26
45129;BME280;35512;56.312;101.728;2022-09-03T09:57:46;96630.09;;;7.32;85.61
45129;BME280;35512;56.312;101.728;2022-09-03T10:00:17;96624.59;;;7.28;85.37
45129;BME280;35512;56.312;101.728;2022-09-03T10:02:51;96634.88;;;7.26;85.50
45129;BME280;35512;56.312;101.728;2022-09-03T10:05:27;96639.81;;;7.24;85.71
45129;BME280;35512;56.312;101.728;2022-09-03T10:08:06;96635.66;;;7.15;85.92
45129;BME280;35512;56.312;101.728;2022-09-03T10:10:48;96642.03;;;7.10;85.71
45129;BME280;35512;56.312;101.728;2022-09-03T10:13:32;96638.91;;;7.08;85.95
45129;BME280;35512;56.312;101.728;2022-09-03T10:19:04;96641.38;;;7.13;85.88
45129;BME280;35512;56.312;101.728;2022-09-03T10:26:47;96649.75;;;7.11;86.49
45129;BME280;35512;56.312;101.728;2022-09-03T10:29:21;96659.28;;;7.09;86.57
45129;BME280;35512;56.312;101.728;2022-09-03T10:31:58;96658.94;;;7.10;86.81
45129;BME280;35512;56.312;101.728;2022-09-03T10:40:35;96662.59;;;6.93;86.55
45129;BME280;35512;56.312;101.728;2022-09-03T10:49:19;96665.38;;;6.85;86.65
45129;BME280;35512;56.312;101.728;2022-09-03T10:52:36;96664.56;;;6.84;86.96
45129;BME280;35512;56.312;101.728;2022-09-03T10:55:26;96660.00;;;6.85;86.86
45129;BME280;35512;56.312;101.728;2022-09-03T11:00:33;96663.78;;;6.84;87.42
45129;BME280;35512;56.312;101.728;2022-09-03T11:07:04;96667.47;;;6.79;87.09
45129;BME280;35512;56.312;101.728;2022-09-03T11:12:21;96674.94;;;6.73;87.27
45129;BME280;35512;56.312;101.728;2022-09-03T11:15:10;96674.34;;;6.68;87.45
45129;BME280;35512;56.312;101.728;2022-09-03T11:18:13;96675.94;;;6.69;87.48
45129;BME280;35512;56.312;101.728;2022-09-03T11:20:46;96684.47;;;6.71;87.54
45129;BME280;35512;56.312;101.728;2022-09-03T11:23:17;96678.28;;;6.70;87.90
45129;BME280;35512;56.312;101.728;2022-09-03T11:25:55;96688.25;;;6.70;88.13
45129;BME280;35512;56.312;101.728;2022-09-03T11:31:44;96685.91;;;6.68;87.59
45129;BME280;35512;56.312;101.728;2022-09-03T11:39:37;96694.59;;;6.65;88.19
45129;BME280;35512;56.312;101.728;2022-09-03T11:42:37;96699.66;;;6.67;88.49
45129;BME280;35512;56.312;101.728;2022-09-03T11:47:57;96694.06;;;6.72;88.18
45129;BME280;35512;56.312;101.728;2022-09-03T11:50:29;96699.31;;;6.68;88.88
45129;BME280;35512;56.312;101.728;2022-09-03T11:58:27;96692.00;;;6.56;88.91
45129;BME280;35512;56.312;101.728;2022-09-03T12:00:58;96703.50;;;6.57;89.07
45129;BME280;35512;56.312;101.728;2022-09-03T12:03:46;96704.41;;;6.61;89.54
45129;BME280;35512;56.312;101.728;2022-09-03T12:09:19;96706.31;;;6.60;89.23
45129;BME280;35512;56.312;101.728;2022-09-03T12:18:38;96703.25;;;6.50;89.92
45129;BME280;35512;56.312;101.728;2022-09-03T12:21:07;96721.66;;;6.60;89.98
45129;BME280;35512;56.312;101.728;2022-09-03T12:23:44;96727.13;;;6.64;89.46
45129;BME280;35512;56.312;101.728;2022-09-03T12:26:19;96723.34;;;6.65;89.50
45129;BME280;35512;56.312;101.728;2022-09-03T12:28:52;96734.53;;;6.67;90.02
45129;BME280;35512;56.312;101.728;2022-09-03T12:31:31;96741.78;;;6.66;89.82
45129;BME280;35512;56.312;101.728;2022-09-03T12:34:11;96736.41;;;6.66;90.04
45129;BME280;35512;56.312;101.728;2022-09-03T12:36:51;96740.69;;;6.67;90.37
45129;BME280;35512;56.312;101.728;2022-09-03T12:39:25;96732.75;;;6.71;90.34
45129;BME280;35512;56.312;101.728;2022-09-03T12:42:25;96731.75;;;6.75;90.29
45129;BME280;35512;56.312;101.728;2022-09-03T12:45:05;96742.75;;;6.83;90.25
45129;BME280;35512;56.312;101.728;2022-09-03T12:47:38;96749.34;;;6.85;90.51
45129;BME280;35512;56.312;101.728;2022-09-03T12:50:19;96746.00;;;6.88;90.90
45129;BME280;35512;56.312;101.728;2022-09-03T12:52:52;96744.91;;;6.89;90.87
45129;BME280;35512;56.312;101.728;2022-09-03T12:55:42;96744.47;;;6.87;90.82
45129;BME280;35512;56.312;101.728;2022-09-03T12:58:32;96732.69;;;6.80;91.04
45129;BME280;35512;56.312;101.728;2022-09-03T13:01:09;96732.50;;;6.64;91.02
45129;BME280;35512;56.312;101.728;2022-09-03T13:06:14;96734.66;;;6.49;91.32
45129;BME280;35512;56.312;101.728;2022-09-03T13:08:50;96738.00;;;6.46;90.94
45129;BME280;35512;56.312;101.728;2022-09-03T13:11:21;96733.09;;;6.48;91.49
45129;BME280;35512;56.312;101.728;2022-09-03T13:23:20;96746.84;;;6.47;91.67
45129;BME280;35512;56.312;101.728;2022-09-03T13:31:36;96749.13;;;6.36;92.02
45129;BME280;35512;56.312;101.728;2022-09-03T13:37:02;96745.38;;;6.28;92.05
45129;BME280;35512;56.312;101.728;2022-09-03T13:39:45;96740.34;;;6.26;92.31
45129;BME280;35512;56.312;101.728;2022-09-03T13:42:34;96758.13;;;6.31;92.18
45129;BME280;35512;56.312;101.728;2022-09-03T13:45:28;96754.34;;;6.32;92.62
45129;BME280;35512;56.312;101.728;2022-09-03T13:48:12;96753.25;;;6.33;92.25
45129;BME280;35512;56.312;101.728;2022-09-03T13:51:14;96754.50;;;6.36;92.55
45129;BME280;35512;56.312;101.728;2022-09-03T14:10:51;96746.22;;;6.20;92.49
45129;BME280;35512;56.312;101.728;2022-09-03T14:16:35;96754.44;;;6.15;92.19
45129;BME280;35512;56.312;101.728;2022-09-03T14:21:52;96742.78;;;6.19;92.93
45129;BME280;35512;56.312;101.728;2022-09-03T14:27:00;96754.59;;;6.18;92.64
45129;BME280;35512;56.312;101.728;2022-09-03T14:33:14;96762.03;;;6.13;92.50
45129;BME280;35512;56.312;101.728;2022-09-03T14:36:30;96760.94;;;6.14;93.10
45129;BME280;35512;56.312;101.728;2022-09-03T14:39:10;96761.13;;;6.08;92.82
45129;BME280;35512;56.312;101.728;2022-09-03T14:50:49;96758.81;;;5.98;92.77
45129;BME280;35512;56.312;101.728;2022-09-03T15:00:04;96762.16;;;5.86;93.16
45129;BME280;35512;56.312;101.728;2022-09-03T15:02:52;96763.72;;;5.87;93.24
45129;BME280;35512;56.312;101.728;2022-09-03T15:05:50;96771.75;;;5.87;92.84
45129;BME280;35512;56.312;101.728;2022-09-03T15:08:38;96776.66;;;5.85;92.92
45129;BME280;35512;56.312;101.728;2022-09-03T15:11:26;96774.16;;;5.80;92.89
45129;BME280;35512;56.312;101.728;2022-09-03T15:17:25;96775.88;;;5.85;93.05
45129;BME280;35512;56.312;101.728;2022-09-03T15:23:19;96788.22;;;5.77;93.17
45129;BME280;35512;56.312;101.728;2022-09-03T15:28:45;96781.63;;;5.66;92.90
45129;BME280;35512;56.312;101.728;2022-09-03T15:34:22;96783.88;;;5.55;92.99
45129;BME280;35512;56.312;101.728;2022-09-03T15:36:58;96782.94;;;5.51;92.90
45129;BME280;35512;56.312;101.728;2022-09-03T15:39:36;96785.63;;;5.51;92.90
45129;BME280;35512;56.312;101.728;2022-09-03T15:45:02;96792.56;;;5.43;92.87
45129;BME280;35512;56.312;101.728;2022-09-03T15:47:54;96786.13;;;5.44;92.53
45129;BME280;35512;56.312;101.728;2022-09-03T15:51:08;96788.81;;;5.44;92.64
45129;BME280;35512;56.312;101.728;2022-09-03T15:54:10;96790.03;;;5.47;92.69
45129;BME280;35512;56.312;101.728;2022-09-03T15:56:52;96786.41;;;5.51;93.06
45129;BME280;35512;56.312;101.728;2022-09-03T16:02:16;96784.06;;;5.50;92.86
45129;BME280;35512;56.312;101.728;2022-09-03T16:04:55;96779.03;;;5.48;93.09
45129;BME280;35512;56.312;101.728;2022-09-03T16:10:12;96785.63;;;5.42;93.20
45129;BME280;35512;56.312;101.728;2022-09-03T16:15:47;96782.34;;;5.36;92.91
45129;BME280;35512;56.312;101.728;2022-09-03T16:21:13;96788.81;;;5.35;93.09
45129;BME280;35512;56.312;101.728;2022-09-03T16:23:59;96792.28;;;5.36;92.53
45129;BME280;35512;56.312;101.728;2022-09-03T16:29:17;96783.13;;;5.37;92.94
45129;BME280;35512;56.312;101.728;2022-09-03T16:35:14;96785.19;;;5.31;93.29
45129;BME280;35512;56.312;101.728;2022-09-03T16:40:55;96789.97;;;5.17;92.37
45129;BME280;35512;56.312;101.728;2022-09-03T16:43:48;96780.19;;;5.12;92.55
45129;BME280;35512;56.312;101.728;2022-09-03T16:51:38;96779.53;;;5.15;92.21
45129;BME280;35512;56.312;101.728;2022-09-03T16:59:58;96783.97;;;5.11;92.53
45129;BME280;35512;56.312;101.728;2022-09-03T17:02:48;96774.69;;;5.08;92.70
45129;BME280;35512;56.312;101.728;2022-09-03T17:05:46;96778.31;;;5.04;93.16
45129;BME280;35512;56.312;101.728;2022-09-03T17:08:42;96778.78;;;5.06;93.05
45129;BME280;35512;56.312;101.728;2022-09-03T17:14:08;96782.09;;;5.03;92.62
45129;BME280;35512;56.312;101.728;2022-09-03T17:17:03;96778.00;;;4.97;92.08
45129;BME280;35512;56.312;101.728;2022-09-03T17:20:24;96780.22;;;4.95;92.77
45129;BME280;35512;56.312;101.728;2022-09-03T17:23:08;96780.06;;;4.91;91.92
45129;BME280;35512;56.312;101.728;2022-09-03T17:25:55;96774.72;;;4.82;92.29
45129;BME280;35512;56.312;101.728;2022-09-03T17:29:12;96783.06;;;4.81;92.25
45129;BME280;35512;56.312;101.728;2022-09-03T17:37:51;96774.53;;;4.96;92.96
45129;BME280;35512;56.312;101.728;2022-09-03T17:49:44;96781.75;;;5.04;92.46